ESCF/LPI METAR and TAF weather

Enter ICAO airport designator
Station Type Date Time Source
ESCF METAR 2019/10/15 08:20 UTC NOAA

ESCF 150820Z 09006KT 9000 -RA BKN004 08/08 Q1015


Station Type Date Time Source
ESCF Decoded METAR 2019/10/15 08:20 UTC NOAA

Linkoping / Malmen, Sweden (ESCF) 58-24N 015-31E 117M
Oct 15, 2019 - 04:20 AM EDT / 2019.10.15 0820 UTC
Wind: from the E (090 degrees) at 7 MPH (6 KT):0
Visibility: 5 mile(s):0
Sky conditions: mostly cloudy
Weather: light rain
Temperature: 46 F (8 C)
Dew Point: 46 F (8 C)
Relative Humidity: 100%
Pressure (altimeter): 29.97 in. Hg (1015 hPa)
ob: ESCF 150820Z 09006KT 9000 -RA BKN004 08/08 Q1015
cycle: 8

Station Type Date Time Source
ESCF TAF UTC NOAA

Error!

Example: see airport list